sensor_id;sensor_type;location;lat;lon;timestamp;P1;durP1;ratioP1;P2;durP2;ratioP2
53977;SDS011;39886;47.984;-1.586;2023-02-18T00:00:24;1.27;;;1.20;;
53977;SDS011;39886;47.984;-1.586;2023-02-18T00:02:51;1.30;;;1.20;;
53977;SDS011;39886;47.984;-1.586;2023-02-18T00:05:17;1.08;;;1.08;;
53977;SDS011;39886;47.984;-1.586;2023-02-18T00:07:43;1.60;;;1.50;;
53977;SDS011;39886;47.984;-1.586;2023-02-18T00:10:13;1.10;;;1.05;;
53977;SDS011;39886;47.984;-1.586;2023-02-18T00:12:40;2.95;;;1.40;;
53977;SDS011;39886;47.984;-1.586;2023-02-18T00:15:06;1.38;;;1.27;;
53977;SDS011;39886;47.984;-1.586;2023-02-18T00:17:33;2.03;;;1.30;;
53977;SDS011;39886;47.984;-1.586;2023-02-18T00:19:59;1.45;;;1.30;;
53977;SDS011;39886;47.984;-1.586;2023-02-18T00:22:25;1.40;;;1.30;;
53977;SDS011;39886;47.984;-1.586;2023-02-18T00:24:51;1.63;;;1.40;;
53977;SDS011;39886;47.984;-1.586;2023-02-18T00:27:16;1.80;;;1.45;;
53977;SDS011;39886;47.984;-1.586;2023-02-18T00:29:43;1.30;;;1.17;;
53977;SDS011;39886;47.984;-1.586;2023-02-18T00:32:08;1.27;;;1.17;;
53977;SDS011;39886;47.984;-1.586;2023-02-18T00:34:34;1.20;;;1.10;;
53977;SDS011;39886;47.984;-1.586;2023-02-18T00:37:00;1.38;;;1.25;;
53977;SDS011;39886;47.984;-1.586;2023-02-18T00:39:26;1.92;;;1.30;;
53977;SDS011;39886;47.984;-1.586;2023-02-18T00:41:51;1.30;;;1.20;;
53977;SDS011;39886;47.984;-1.586;2023-02-18T00:44:17;1.33;;;1.23;;
53977;SDS011;39886;47.984;-1.586;2023-02-18T00:46:43;1.30;;;1.20;;
53977;SDS011;39886;47.984;-1.586;2023-02-18T00:49:12;1.42;;;1.30;;
53977;SDS011;39886;47.984;-1.586;2023-02-18T00:51:38;1.25;;;1.15;;
53977;SDS011;39886;47.984;-1.586;2023-02-18T00:54:04;1.13;;;1.10;;
53977;SDS011;39886;47.984;-1.586;2023-02-18T00:56:30;1.35;;;1.10;;
53977;SDS011;39886;47.984;-1.586;2023-02-18T00:58:56;1.30;;;1.20;;
53977;SDS011;39886;47.984;-1.586;2023-02-18T01:01:21;1.30;;;1.20;;
53977;SDS011;39886;47.984;-1.586;2023-02-18T01:03:48;1.52;;;1.20;;
53977;SDS011;39886;47.984;-1.586;2023-02-18T01:06:14;1.23;;;1.20;;
53977;SDS011;39886;47.984;-1.586;2023-02-18T01:08:40;1.95;;;1.40;;
53977;SDS011;39886;47.984;-1.586;2023-02-18T01:11:06;1.40;;;1.30;;
53977;SDS011;39886;47.984;-1.586;2023-02-18T01:13:34;1.40;;;1.30;;
53977;SDS011;39886;47.984;-1.586;2023-02-18T01:16:00;1.75;;;1.30;;
53977;SDS011;39886;47.984;-1.586;2023-02-18T01:18:26;1.40;;;1.30;;
53977;SDS011;39886;47.984;-1.586;2023-02-18T01:20:52;1.45;;;1.35;;
53977;SDS011;39886;47.984;-1.586;2023-02-18T01:23:19;1.30;;;1.20;;
53977;SDS011;39886;47.984;-1.586;2023-02-18T01:25:46;1.33;;;1.23;;
53977;SDS011;39886;47.984;-1.586;2023-02-18T01:28:13;1.67;;;1.30;;
53977;SDS011;39886;47.984;-1.586;2023-02-18T01:30:39;1.40;;;1.30;;
53977;SDS011;39886;47.984;-1.586;2023-02-18T01:33:05;1.30;;;1.20;;
53977;SDS011;39886;47.984;-1.586;2023-02-18T01:35:31;1.10;;;1.10;;
53977;SDS011;39886;47.984;-1.586;2023-02-18T01:37:57;1.60;;;1.30;;
53977;SDS011;39886;47.984;-1.586;2023-02-18T01:40:24;1.40;;;1.30;;
53977;SDS011;39886;47.984;-1.586;2023-02-18T01:42:52;1.23;;;1.10;;
53977;SDS011;39886;47.984;-1.586;2023-02-18T01:48:09;1.30;;;1.20;;
53977;SDS011;39886;47.984;-1.586;2023-02-18T01:50:49;1.25;;;1.15;;
53977;SDS011;39886;47.984;-1.586;2023-02-18T01:53:20;1.50;;;1.40;;
53977;SDS011;39886;47.984;-1.586;2023-02-18T01:55:52;0.98;;;0.98;;
53977;SDS011;39886;47.984;-1.586;2023-02-18T01:58:19;1.50;;;1.40;;
53977;SDS011;39886;47.984;-1.586;2023-02-18T02:00:45;2.35;;;1.30;;
53977;SDS011;39886;47.984;-1.586;2023-02-18T02:03:11;1.30;;;1.20;;
53977;SDS011;39886;47.984;-1.586;2023-02-18T02:05:36;1.30;;;1.20;;
53977;SDS011;39886;47.984;-1.586;2023-02-18T02:08:02;1.60;;;1.10;;
53977;SDS011;39886;47.984;-1.586;2023-02-18T02:10:39;1.20;;;1.10;;
53977;SDS011;39886;47.984;-1.586;2023-02-18T02:13:14;1.20;;;1.10;;
53977;SDS011;39886;47.984;-1.586;2023-02-18T02:16:08;1.37;;;1.27;;
53977;SDS011;39886;47.984;-1.586;2023-02-18T02:18:52;1.30;;;1.20;;
53977;SDS011;39886;47.984;-1.586;2023-02-18T02:21:49;1.95;;;1.30;;
53977;SDS011;39886;47.984;-1.586;2023-02-18T02:27:05;1.20;;;1.10;;
53977;SDS011;39886;47.984;-1.586;2023-02-18T02:35:20;1.58;;;1.45;;
53977;SDS011;39886;47.984;-1.586;2023-02-18T02:46:02;1.17;;;1.10;;
53977;SDS011;39886;47.984;-1.586;2023-02-18T02:51:08;1.40;;;1.30;;
53977;SDS011;39886;47.984;-1.586;2023-02-18T02:53:39;1.42;;;1.33;;
53977;SDS011;39886;47.984;-1.586;2023-02-18T02:56:08;1.08;;;1.08;;
53977;SDS011;39886;47.984;-1.586;2023-02-18T03:01:14;1.40;;;1.30;;
53977;SDS011;39886;47.984;-1.586;2023-02-18T03:04:02;1.48;;;1.33;;
53977;SDS011;39886;47.984;-1.586;2023-02-18T03:15:04;1.30;;;1.20;;
53977;SDS011;39886;47.984;-1.586;2023-02-18T03:20:17;1.63;;;1.25;;
53977;SDS011;39886;47.984;-1.586;2023-02-18T03:22:47;1.30;;;1.20;;
53977;SDS011;39886;47.984;-1.586;2023-02-18T03:25:15;1.30;;;1.20;;
53977;SDS011;39886;47.984;-1.586;2023-02-18T03:27:44;1.23;;;1.10;;
53977;SDS011;39886;47.984;-1.586;2023-02-18T03:30:22;1.33;;;1.10;;
53977;SDS011;39886;47.984;-1.586;2023-02-18T03:32:55;1.38;;;1.10;;
53977;SDS011;39886;47.984;-1.586;2023-02-18T03:35:25;1.50;;;1.25;;
53977;SDS011;39886;47.984;-1.586;2023-02-18T03:37:52;1.17;;;1.05;;
53977;SDS011;39886;47.984;-1.586;2023-02-18T03:40:29;1.23;;;1.20;;
53977;SDS011;39886;47.984;-1.586;2023-02-18T03:42:58;1.40;;;1.20;;
53977;SDS011;39886;47.984;-1.586;2023-02-18T03:45:24;1.63;;;1.20;;
53977;SDS011;39886;47.984;-1.586;2023-02-18T03:47:51;1.23;;;1.13;;
53977;SDS011;39886;47.984;-1.586;2023-02-18T03:50:18;1.08;;;1.08;;
53977;SDS011;39886;47.984;-1.586;2023-02-18T03:52:44;1.20;;;1.10;;
53977;SDS011;39886;47.984;-1.586;2023-02-18T03:55:10;1.20;;;1.10;;
53977;SDS011;39886;47.984;-1.586;2023-02-18T03:57:35;1.23;;;1.10;;
53977;SDS011;39886;47.984;-1.586;2023-02-18T04:00:02;1.50;;;1.10;;
53977;SDS011;39886;47.984;-1.586;2023-02-18T04:02:30;1.23;;;1.13;;
53977;SDS011;39886;47.984;-1.586;2023-02-18T04:04:57;1.10;;;1.02;;
53977;SDS011;39886;47.984;-1.586;2023-02-18T04:07:22;0.85;;;0.85;;
53977;SDS011;39886;47.984;-1.586;2023-02-18T04:09:48;1.30;;;1.20;;
53977;SDS011;39886;47.984;-1.586;2023-02-18T04:12:14;1.30;;;1.17;;
53977;SDS011;39886;47.984;-1.586;2023-02-18T04:14:40;1.55;;;1.20;;
53977;SDS011;39886;47.984;-1.586;2023-02-18T04:17:05;2.10;;;1.30;;
53977;SDS011;39886;47.984;-1.586;2023-02-18T04:19:31;1.30;;;1.20;;
53977;SDS011;39886;47.984;-1.586;2023-02-18T04:21:57;1.55;;;1.20;;
53977;SDS011;39886;47.984;-1.586;2023-02-18T04:24:23;1.23;;;1.13;;
53977;SDS011;39886;47.984;-1.586;2023-02-18T04:26:48;1.20;;;1.10;;
53977;SDS011;39886;47.984;-1.586;2023-02-18T04:29:14;0.90;;;0.90;;
53977;SDS011;39886;47.984;-1.586;2023-02-18T04:31:40;1.35;;;1.25;;
53977;SDS011;39886;47.984;-1.586;2023-02-18T04:34:06;1.30;;;1.20;;
53977;SDS011;39886;47.984;-1.586;2023-02-18T04:36:32;1.20;;;1.02;;
53977;SDS011;39886;47.984;-1.586;2023-02-18T04:38:58;1.30;;;1.00;;
53977;SDS011;39886;47.984;-1.586;2023-02-18T04:41:24;1.20;;;1.10;;
53977;SDS011;39886;47.984;-1.586;2023-02-18T04:43:50;1.20;;;1.10;;
53977;SDS011;39886;47.984;-1.586;2023-02-18T04:46:16;1.25;;;1.15;;
53977;SDS011;39886;47.984;-1.586;2023-02-18T04:48:41;1.23;;;1.13;;
53977;SDS011;39886;47.984;-1.586;2023-02-18T04:51:07;1.00;;;1.00;;
53977;SDS011;39886;47.984;-1.586;2023-02-18T04:53:33;1.20;;;1.10;;
53977;SDS011;39886;47.984;-1.586;2023-02-18T04:55:59;1.05;;;1.00;;
53977;SDS011;39886;47.984;-1.586;2023-02-18T04:58:25;1.20;;;1.00;;
53977;SDS011;39886;47.984;-1.586;2023-02-18T05:00:50;1.30;;;1.20;;
53977;SDS011;39886;47.984;-1.586;2023-02-18T05:03:18;2.25;;;1.30;;
53977;SDS011;39886;47.984;-1.586;2023-02-18T05:05:43;1.45;;;1.23;;
53977;SDS011;39886;47.984;-1.586;2023-02-18T05:08:10;0.90;;;0.90;;
53977;SDS011;39886;47.984;-1.586;2023-02-18T05:10:36;0.90;;;0.90;;
53977;SDS011;39886;47.984;-1.586;2023-02-18T05:13:03;1.05;;;1.05;;
53977;SDS011;39886;47.984;-1.586;2023-02-18T05:15:28;1.02;;;1.00;;
53977;SDS011;39886;47.984;-1.586;2023-02-18T05:17:54;1.30;;;1.20;;
53977;SDS011;39886;47.984;-1.586;2023-02-18T05:20:20;0.90;;;0.90;;
53977;SDS011;39886;47.984;-1.586;2023-02-18T05:22:46;1.20;;;1.10;;
53977;SDS011;39886;47.984;-1.586;2023-02-18T05:25:11;1.50;;;1.20;;
53977;SDS011;39886;47.984;-1.586;2023-02-18T05:27:37;1.15;;;1.05;;
53977;SDS011;39886;47.984;-1.586;2023-02-18T05:30:03;1.30;;;1.20;;
53977;SDS011;39886;47.984;-1.586;2023-02-18T05:32:30;1.13;;;1.02;;
53977;SDS011;39886;47.984;-1.586;2023-02-18T05:34:56;1.20;;;1.10;;
53977;SDS011;39886;47.984;-1.586;2023-02-18T05:37:22;1.00;;;0.90;;
53977;SDS011;39886;47.984;-1.586;2023-02-18T05:39:48;1.05;;;1.05;;
53977;SDS011;39886;47.984;-1.586;2023-02-18T05:42:14;1.00;;;1.00;;
53977;SDS011;39886;47.984;-1.586;2023-02-18T05:44:39;1.20;;;1.00;;
53977;SDS011;39886;47.984;-1.586;2023-02-18T05:47:07;1.00;;;1.00;;
53977;SDS011;39886;47.984;-1.586;2023-02-18T05:49:35;1.50;;;1.30;;
53977;SDS011;39886;47.984;-1.586;2023-02-18T05:52:03;1.08;;;1.08;;
53977;SDS011;39886;47.984;-1.586;2023-02-18T05:54:29;1.00;;;1.00;;
53977;SDS011;39886;47.984;-1.586;2023-02-18T05:56:56;1.00;;;1.00;;
53977;SDS011;39886;47.984;-1.586;2023-02-18T05:59:22;1.15;;;1.05;;
53977;SDS011;39886;47.984;-1.586;2023-02-18T06:01:48;1.00;;;1.00;;
53977;SDS011;39886;47.984;-1.586;2023-02-18T06:04:15;1.20;;;1.08;;
53977;SDS011;39886;47.984;-1.586;2023-02-18T06:06:41;1.05;;;1.05;;
53977;SDS011;39886;47.984;-1.586;2023-02-18T06:09:07;1.08;;;1.02;;
53977;SDS011;39886;47.984;-1.586;2023-02-18T06:11:33;1.40;;;1.13;;
53977;SDS011;39886;47.984;-1.586;2023-02-18T06:13:59;1.00;;;1.00;;
53977;SDS011;39886;47.984;-1.586;2023-02-18T06:16:25;1.20;;;1.10;;
53977;SDS011;39886;47.984;-1.586;2023-02-18T06:18:51;1.02;;;1.02;;
53977;SDS011;39886;47.984;-1.586;2023-02-18T06:21:17;1.98;;;1.27;;
53977;SDS011;39886;47.984;-1.586;2023-02-18T06:23:43;1.10;;;1.10;;
53977;SDS011;39886;47.984;-1.586;2023-02-18T06:26:09;1.30;;;1.20;;
53977;SDS011;39886;47.984;-1.586;2023-02-18T06:28:35;1.10;;;1.00;;
53977;SDS011;39886;47.984;-1.586;2023-02-18T06:31:01;1.08;;;1.08;;
53977;SDS011;39886;47.984;-1.586;2023-02-18T06:33:27;1.38;;;0.90;;
53977;SDS011;39886;47.984;-1.586;2023-02-18T06:35:58;1.20;;;1.10;;
53977;SDS011;39886;47.984;-1.586;2023-02-18T06:38:31;1.33;;;1.23;;
53977;SDS011;39886;47.984;-1.586;2023-02-18T06:41:00;1.13;;;0.98;;
53977;SDS011;39886;47.984;-1.586;2023-02-18T06:43:26;0.98;;;0.98;;
53977;SDS011;39886;47.984;-1.586;2023-02-18T06:45:52;1.10;;;1.00;;
53977;SDS011;39886;47.984;-1.586;2023-02-18T06:48:18;0.90;;;0.90;;
53977;SDS011;39886;47.984;-1.586;2023-02-18T06:50:44;1.13;;;1.05;;
53977;SDS011;39886;47.984;-1.586;2023-02-18T06:53:10;0.90;;;0.90;;
53977;SDS011;39886;47.984;-1.586;2023-02-18T06:55:37;1.33;;;1.10;;
53977;SDS011;39886;47.984;-1.586;2023-02-18T06:58:02;1.20;;;1.10;;
53977;SDS011;39886;47.984;-1.586;2023-02-18T07:00:28;1.20;;;1.10;;
53977;SDS011;39886;47.984;-1.586;2023-02-18T07:02:54;1.00;;;1.00;;
53977;SDS011;39886;47.984;-1.586;2023-02-18T07:05:20;1.80;;;1.20;;
53977;SDS011;39886;47.984;-1.586;2023-02-18T07:07:46;0.90;;;0.90;;
53977;SDS011;39886;47.984;-1.586;2023-02-18T07:10:11;0.90;;;0.90;;
53977;SDS011;39886;47.984;-1.586;2023-02-18T07:12:37;1.00;;;1.00;;
53977;SDS011;39886;47.984;-1.586;2023-02-18T07:15:03;0.90;;;0.90;;
53977;SDS011;39886;47.984;-1.586;2023-02-18T07:17:29;1.30;;;1.20;;
53977;SDS011;39886;47.984;-1.586;2023-02-18T07:19:55;1.20;;;1.10;;
53977;SDS011;39886;47.984;-1.586;2023-02-18T07:22:21;1.00;;;1.00;;
53977;SDS011;39886;47.984;-1.586;2023-02-18T07:24:50;1.00;;;1.00;;
53977;SDS011;39886;47.984;-1.586;2023-02-18T07:27:17;0.90;;;0.90;;
53977;SDS011;39886;47.984;-1.586;2023-02-18T07:29:43;1.10;;;1.00;;
53977;SDS011;39886;47.984;-1.586;2023-02-18T07:32:11;1.17;;;1.00;;
53977;SDS011;39886;47.984;-1.586;2023-02-18T07:34:37;1.20;;;1.00;;
53977;SDS011;39886;47.984;-1.586;2023-02-18T07:37:03;1.02;;;1.00;;
53977;SDS011;39886;47.984;-1.586;2023-02-18T07:39:33;1.00;;;1.00;;
53977;SDS011;39886;47.984;-1.586;2023-02-18T07:42:01;1.20;;;1.10;;
53977;SDS011;39886;47.984;-1.586;2023-02-18T07:44:27;1.00;;;1.00;;
53977;SDS011;39886;47.984;-1.586;2023-02-18T07:46:53;1.65;;;1.20;;
53977;SDS011;39886;47.984;-1.586;2023-02-18T07:49:19;0.80;;;0.80;;
53977;SDS011;39886;47.984;-1.586;2023-02-18T07:51:48;1.20;;;1.10;;
53977;SDS011;39886;47.984;-1.586;2023-02-18T07:54:15;0.90;;;0.90;;
53977;SDS011;39886;47.984;-1.586;2023-02-18T07:56:42;2.58;;;1.10;;
53977;SDS011;39886;47.984;-1.586;2023-02-18T07:59:09;1.00;;;1.00;;
53977;SDS011;39886;47.984;-1.586;2023-02-18T08:01:35;1.33;;;0.90;;
53977;SDS011;39886;47.984;-1.586;2023-02-18T08:04:01;1.00;;;1.00;;
53977;SDS011;39886;47.984;-1.586;2023-02-18T08:06:29;1.42;;;1.20;;
53977;SDS011;39886;47.984;-1.586;2023-02-18T08:08:58;1.15;;;1.10;;
53977;SDS011;39886;47.984;-1.586;2023-02-18T08:11:23;1.25;;;1.13;;
53977;SDS011;39886;47.984;-1.586;2023-02-18T08:13:49;0.90;;;0.90;;
53977;SDS011;39886;47.984;-1.586;2023-02-18T08:16:16;1.38;;;1.08;;
53977;SDS011;39886;47.984;-1.586;2023-02-18T08:18:43;0.98;;;0.98;;
53977;SDS011;39886;47.984;-1.586;2023-02-18T08:21:09;1.75;;;1.30;;
53977;SDS011;39886;47.984;-1.586;2023-02-18T08:23:34;1.38;;;1.13;;
53977;SDS011;39886;47.984;-1.586;2023-02-18T08:26:00;0.82;;;0.82;;
53977;SDS011;39886;47.984;-1.586;2023-02-18T08:28:26;1.60;;;1.02;;
53977;SDS011;39886;47.984;-1.586;2023-02-18T08:30:52;0.88;;;0.88;;
53977;SDS011;39886;47.984;-1.586;2023-02-18T08:33:19;1.10;;;1.02;;
53977;SDS011;39886;47.984;-1.586;2023-02-18T08:35:45;0.90;;;0.90;;
53977;SDS011;39886;47.984;-1.586;2023-02-18T08:38:13;0.95;;;0.95;;
53977;SDS011;39886;47.984;-1.586;2023-02-18T08:40:38;0.82;;;0.82;;
53977;SDS011;39886;47.984;-1.586;2023-02-18T08:43:07;0.90;;;0.90;;
53977;SDS011;39886;47.984;-1.586;2023-02-18T08:45:33;0.80;;;0.80;;
53977;SDS011;39886;47.984;-1.586;2023-02-18T08:48:02;1.02;;;0.93;;
53977;SDS011;39886;47.984;-1.586;2023-02-18T08:50:28;0.95;;;0.90;;
53977;SDS011;39886;47.984;-1.586;2023-02-18T08:52:55;1.45;;;1.10;;
53977;SDS011;39886;47.984;-1.586;2023-02-18T08:55:21;0.88;;;0.88;;
53977;SDS011;39886;47.984;-1.586;2023-02-18T08:57:48;1.02;;;1.00;;
53977;SDS011;39886;47.984;-1.586;2023-02-18T09:00:14;1.00;;;1.00;;
53977;SDS011;39886;47.984;-1.586;2023-02-18T09:02:41;0.90;;;0.90;;
53977;SDS011;39886;47.984;-1.586;2023-02-18T09:05:07;0.93;;;0.93;;
53977;SDS011;39886;47.984;-1.586;2023-02-18T09:07:34;1.50;;;1.20;;
53977;SDS011;39886;47.984;-1.586;2023-02-18T09:10:00;0.93;;;0.90;;
53977;SDS011;39886;47.984;-1.586;2023-02-18T09:12:27;0.80;;;0.80;;
53977;SDS011;39886;47.984;-1.586;2023-02-18T09:14:52;0.90;;;0.90;;
53977;SDS011;39886;47.984;-1.586;2023-02-18T09:17:18;1.60;;;0.90;;
53977;SDS011;39886;47.984;-1.586;2023-02-18T09:19:44;1.05;;;1.05;;
53977;SDS011;39886;47.984;-1.586;2023-02-18T09:22:10;0.95;;;0.95;;
53977;SDS011;39886;47.984;-1.586;2023-02-18T09:24:39;0.80;;;0.80;;
53977;SDS011;39886;47.984;-1.586;2023-02-18T09:27:06;1.00;;;0.90;;
53977;SDS011;39886;47.984;-1.586;2023-02-18T09:29:33;1.00;;;1.00;;
53977;SDS011;39886;47.984;-1.586;2023-02-18T09:32:02;1.02;;;1.00;;
53977;SDS011;39886;47.984;-1.586;2023-02-18T09:34:28;0.85;;;0.85;;
53977;SDS011;39886;47.984;-1.586;2023-02-18T09:36:54;1.02;;;1.00;;
53977;SDS011;39886;47.984;-1.586;2023-02-18T09:39:20;0.80;;;0.80;;
53977;SDS011;39886;47.984;-1.586;2023-02-18T09:41:47;1.20;;;1.10;;
53977;SDS011;39886;47.984;-1.586;2023-02-18T09:47:17;1.35;;;1.00;;
53977;SDS011;39886;47.984;-1.586;2023-02-18T09:50:05;0.80;;;0.80;;
53977;SDS011;39886;47.984;-1.586;2023-02-18T09:52:33;0.80;;;0.80;;
53977;SDS011;39886;47.984;-1.586;2023-02-18T09:55:47;0.80;;;0.80;;
53977;SDS011;39886;47.984;-1.586;2023-02-18T09:57:58;1.08;;;0.98;;
53977;SDS011;39886;47.984;-1.586;2023-02-18T10:00:29;0.93;;;0.90;;
53977;SDS011;39886;47.984;-1.586;2023-02-18T10:03:10;0.90;;;0.90;;
53977;SDS011;39886;47.984;-1.586;2023-02-18T10:05:40;1.25;;;1.00;;
53977;SDS011;39886;47.984;-1.586;2023-02-18T10:08:18;0.80;;;0.80;;
53977;SDS011;39886;47.984;-1.586;2023-02-18T10:10:47;1.00;;;0.98;;
53977;SDS011;39886;47.984;-1.586;2023-02-18T10:13:17;0.88;;;0.88;;
53977;SDS011;39886;47.984;-1.586;2023-02-18T10:15:48;0.80;;;0.80;;
53977;SDS011;39886;47.984;-1.586;2023-02-18T10:20:57;0.70;;;0.70;;
53977;SDS011;39886;47.984;-1.586;2023-02-18T10:23:30;0.85;;;0.85;;
53977;SDS011;39886;47.984;-1.586;2023-02-18T10:26:00;1.10;;;0.85;;
53977;SDS011;39886;47.984;-1.586;2023-02-18T10:28:29;1.02;;;0.93;;
53977;SDS011;39886;47.984;-1.586;2023-02-18T10:31:01;1.15;;;1.00;;
53977;SDS011;39886;47.984;-1.586;2023-02-18T10:33:33;1.10;;;1.00;;
53977;SDS011;39886;47.984;-1.586;2023-02-18T10:49:47;0.80;;;0.80;;
53977;SDS011;39886;47.984;-1.586;2023-02-18T10:52:22;0.90;;;0.90;;
53977;SDS011;39886;47.984;-1.586;2023-02-18T10:54:59;0.90;;;0.90;;
53977;SDS011;39886;47.984;-1.586;2023-02-18T10:57:33;0.73;;;0.73;;
53977;SDS011;39886;47.984;-1.586;2023-02-18T11:00:15;0.75;;;0.75;;
53977;SDS011;39886;47.984;-1.586;2023-02-18T11:03:12;0.88;;;0.88;;
53977;SDS011;39886;47.984;-1.586;2023-02-18T11:05:41;0.80;;;0.80;;
53977;SDS011;39886;47.984;-1.586;2023-02-18T11:08:09;1.33;;;1.00;;
53977;SDS011;39886;47.984;-1.586;2023-02-18T11:10:41;0.83;;;0.83;;
53977;SDS011;39886;47.984;-1.586;2023-02-18T11:13:09;0.93;;;0.93;;
53977;SDS011;39886;47.984;-1.586;2023-02-18T11:15:52;0.80;;;0.80;;
53977;SDS011;39886;47.984;-1.586;2023-02-18T11:21:01;1.30;;;1.10;;
53977;SDS011;39886;47.984;-1.586;2023-02-18T11:23:46;0.80;;;0.80;;
53977;SDS011;39886;47.984;-1.586;2023-02-18T11:26:17;0.90;;;0.90;;
53977;SDS011;39886;47.984;-1.586;2023-02-18T11:28:51;0.88;;;0.88;;
53977;SDS011;39886;47.984;-1.586;2023-02-18T11:31:43;0.75;;;0.75;;
53977;SDS011;39886;47.984;-1.586;2023-02-18T11:34:25;0.77;;;0.77;;
53977;SDS011;39886;47.984;-1.586;2023-02-18T11:36:53;1.20;;;0.88;;
53977;SDS011;39886;47.984;-1.586;2023-02-18T11:39:23;0.80;;;0.80;;
53977;SDS011;39886;47.984;-1.586;2023-02-18T11:44:27;0.80;;;0.80;;
53977;SDS011;39886;47.984;-1.586;2023-02-18T11:47:03;0.80;;;0.80;;
53977;SDS011;39886;47.984;-1.586;2023-02-18T11:49:32;1.73;;;1.10;;
53977;SDS011;39886;47.984;-1.586;2023-02-18T11:52:13;1.10;;;0.90;;
53977;SDS011;39886;47.984;-1.586;2023-02-18T11:54:42;0.80;;;0.80;;
53977;SDS011;39886;47.984;-1.586;2023-02-18T11:57:22;0.70;;;0.70;;
53977;SDS011;39886;47.984;-1.586;2023-02-18T11:59:50;0.70;;;0.70;;
53977;SDS011;39886;47.984;-1.586;2023-02-18T12:02:38;1.00;;;0.90;;
53977;SDS011;39886;47.984;-1.586;2023-02-18T12:07:41;0.90;;;0.90;;
53977;SDS011;39886;47.984;-1.586;2023-02-18T12:10:13;0.80;;;0.80;;
53977;SDS011;39886;47.984;-1.586;2023-02-18T12:15:17;0.80;;;0.80;;
53977;SDS011;39886;47.984;-1.586;2023-02-18T12:18:00;0.88;;;0.88;;
53977;SDS011;39886;47.984;-1.586;2023-02-18T12:20:58;0.90;;;0.82;;
53977;SDS011;39886;47.984;-1.586;2023-02-18T12:23:41;1.05;;;0.80;;
53977;SDS011;39886;47.984;-1.586;2023-02-18T12:26:30;1.10;;;0.90;;
53977;SDS011;39886;47.984;-1.586;2023-02-18T12:31:55;0.98;;;0.90;;
53977;SDS011;39886;47.984;-1.586;2023-02-18T12:37:39;0.65;;;0.65;;
53977;SDS011;39886;47.984;-1.586;2023-02-18T12:40:25;0.80;;;0.80;;
53977;SDS011;39886;47.984;-1.586;2023-02-18T12:43:26;0.73;;;0.73;;
53977;SDS011;39886;47.984;-1.586;2023-02-18T12:48:51;1.00;;;0.90;;
53977;SDS011;39886;47.984;-1.586;2023-02-18T12:51:37;0.70;;;0.70;;
53977;SDS011;39886;47.984;-1.586;2023-02-18T12:59:55;0.82;;;0.80;;
53977;SDS011;39886;47.984;-1.586;2023-02-18T13:05:43;0.80;;;0.80;;
53977;SDS011;39886;47.984;-1.586;2023-02-18T13:08:51;1.00;;;0.85;;
53977;SDS011;39886;47.984;-1.586;2023-02-18T13:11:40;1.15;;;0.90;;
53977;SDS011;39886;47.984;-1.586;2023-02-18T13:14:12;1.17;;;0.95;;
53977;SDS011;39886;47.984;-1.586;2023-02-18T13:17:01;1.05;;;1.00;;
53977;SDS011;39886;47.984;-1.586;2023-02-18T13:19:40;0.85;;;0.85;;
53977;SDS011;39886;47.984;-1.586;2023-02-18T13:22:21;0.73;;;0.73;;
53977;SDS011;39886;47.984;-1.586;2023-02-18T13:24:49;0.80;;;0.80;;
53977;SDS011;39886;47.984;-1.586;2023-02-18T13:27:23;0.80;;;0.80;;
53977;SDS011;39886;47.984;-1.586;2023-02-18T13:30:01;0.90;;;0.82;;
53977;SDS011;39886;47.984;-1.586;2023-02-18T13:41:36;0.98;;;0.90;;
53977;SDS011;39886;47.984;-1.586;2023-02-18T13:44:08;0.80;;;0.80;;
53977;SDS011;39886;47.984;-1.586;2023-02-18T13:46:55;0.82;;;0.82;;
53977;SDS011;39886;47.984;-1.586;2023-02-18T13:49:30;1.20;;;1.10;;
53977;SDS011;39886;47.984;-1.586;2023-02-18T13:51:58;1.00;;;0.90;;
53977;SDS011;39886;47.984;-1.586;2023-02-18T13:54:42;0.80;;;0.80;;
53977;SDS011;39886;47.984;-1.586;2023-02-18T13:57:13;1.23;;;1.00;;
53977;SDS011;39886;47.984;-1.586;2023-02-18T13:59:47;1.27;;;0.95;;
53977;SDS011;39886;47.984;-1.586;2023-02-18T14:23:37;0.88;;;0.80;;
53977;SDS011;39886;47.984;-1.586;2023-02-18T14:25:56;1.00;;;0.90;;
53977;SDS011;39886;47.984;-1.586;2023-02-18T14:33:36;2.00;;;1.00;;
53977;SDS011;39886;47.984;-1.586;2023-02-18T14:38:54;0.93;;;0.93;;
53977;SDS011;39886;47.984;-1.586;2023-02-18T14:50:22;1.05;;;0.90;;
53977;SDS011;39886;47.984;-1.586;2023-02-18T14:52:58;1.02;;;0.90;;
53977;SDS011;39886;47.984;-1.586;2023-02-18T14:55:32;1.63;;;0.98;;
53977;SDS011;39886;47.984;-1.586;2023-02-18T15:00:32;0.80;;;0.80;;
53977;SDS011;39886;47.984;-1.586;2023-02-18T15:03:00;0.98;;;0.98;;
53977;SDS011;39886;47.984;-1.586;2023-02-18T15:05:28;1.00;;;0.90;;
53977;SDS011;39886;47.984;-1.586;2023-02-18T15:08:01;1.00;;;1.00;;
53977;SDS011;39886;47.984;-1.586;2023-02-18T15:10:41;1.27;;;0.70;;
53977;SDS011;39886;47.984;-1.586;2023-02-18T15:13:11;0.90;;;0.90;;
53977;SDS011;39886;47.984;-1.586;2023-02-18T15:15:39;0.80;;;0.80;;
53977;SDS011;39886;47.984;-1.586;2023-02-18T15:18:11;0.90;;;0.80;;
53977;SDS011;39886;47.984;-1.586;2023-02-18T15:21:06;0.82;;;0.82;;
53977;SDS011;39886;47.984;-1.586;2023-02-18T15:23:37;1.35;;;1.00;;
53977;SDS011;39886;47.984;-1.586;2023-02-18T15:26:05;0.85;;;0.80;;
53977;SDS011;39886;47.984;-1.586;2023-02-18T15:28:38;1.10;;;0.98;;
53977;SDS011;39886;47.984;-1.586;2023-02-18T15:31:15;1.58;;;0.90;;
53977;SDS011;39886;47.984;-1.586;2023-02-18T15:33:42;2.45;;;1.20;;
53977;SDS011;39886;47.984;-1.586;2023-02-18T15:36:08;1.00;;;0.85;;
53977;SDS011;39886;47.984;-1.586;2023-02-18T15:38:38;1.35;;;1.05;;
53977;SDS011;39886;47.984;-1.586;2023-02-18T15:41:09;1.45;;;0.80;;
53977;SDS011;39886;47.984;-1.586;2023-02-18T15:43:36;1.00;;;1.00;;
53977;SDS011;39886;47.984;-1.586;2023-02-18T15:46:03;0.80;;;0.80;;
53977;SDS011;39886;47.984;-1.586;2023-02-18T15:48:43;0.95;;;0.95;;
53977;SDS011;39886;47.984;-1.586;2023-02-18T15:51:12;0.70;;;0.70;;
53977;SDS011;39886;47.984;-1.586;2023-02-18T15:53:41;1.75;;;1.08;;
53977;SDS011;39886;47.984;-1.586;2023-02-18T15:56:09;0.95;;;0.90;;
53977;SDS011;39886;47.984;-1.586;2023-02-18T15:58:40;1.38;;;1.00;;
53977;SDS011;39886;47.984;-1.586;2023-02-18T16:01:06;1.30;;;0.88;;
53977;SDS011;39886;47.984;-1.586;2023-02-18T16:03:49;0.93;;;0.90;;
53977;SDS011;39886;47.984;-1.586;2023-02-18T16:11:28;1.75;;;1.00;;
53977;SDS011;39886;47.984;-1.586;2023-02-18T16:16:29;1.50;;;0.90;;
53977;SDS011;39886;47.984;-1.586;2023-02-18T16:19:01;1.05;;;1.00;;
53977;SDS011;39886;47.984;-1.586;2023-02-18T16:21:31;1.02;;;0.90;;
53977;SDS011;39886;47.984;-1.586;2023-02-18T16:24:02;0.80;;;0.80;;
53977;SDS011;39886;47.984;-1.586;2023-02-18T16:26:48;0.90;;;0.90;;
53977;SDS011;39886;47.984;-1.586;2023-02-18T16:29:26;1.05;;;0.98;;
53977;SDS011;39886;47.984;-1.586;2023-02-18T16:32:00;1.08;;;0.82;;
53977;SDS011;39886;47.984;-1.586;2023-02-18T16:34:26;0.90;;;0.90;;
53977;SDS011;39886;47.984;-1.586;2023-02-18T16:36:52;0.90;;;0.90;;
53977;SDS011;39886;47.984;-1.586;2023-02-18T16:39:37;0.90;;;0.90;;
53977;SDS011;39886;47.984;-1.586;2023-02-18T16:42:13;0.80;;;0.80;;
53977;SDS011;39886;47.984;-1.586;2023-02-18T16:44:39;0.90;;;0.90;;
53977;SDS011;39886;47.984;-1.586;2023-02-18T16:47:05;0.98;;;0.90;;
53977;SDS011;39886;47.984;-1.586;2023-02-18T16:49:31;0.90;;;0.90;;
53977;SDS011;39886;47.984;-1.586;2023-02-18T16:52:04;1.30;;;1.10;;
53977;SDS011;39886;47.984;-1.586;2023-02-18T16:54:31;0.80;;;0.80;;
53977;SDS011;39886;47.984;-1.586;2023-02-18T16:56:58;2.35;;;0.98;;
53977;SDS011;39886;47.984;-1.586;2023-02-18T16:59:24;1.42;;;0.80;;
53977;SDS011;39886;47.984;-1.586;2023-02-18T17:01:50;1.00;;;0.90;;
53977;SDS011;39886;47.984;-1.586;2023-02-18T17:04:16;1.10;;;0.93;;
53977;SDS011;39886;47.984;-1.586;2023-02-18T17:06:44;1.00;;;0.90;;
53977;SDS011;39886;47.984;-1.586;2023-02-18T17:09:14;1.10;;;1.10;;